X  Schlie├čen METAR Luftfahrt Wetterdaten     LOWW Vienna International Airport
Temperatur
13°C Temperatur
12°C Taupunkt
94% Feuchtigkeit



Wind
2 M/S
5 MPS
8 km/h
4 KTS



160°
SSO
Aktuelle Wetterlage

Klar Klar
Luftdruck 1024.92 (hPa) - 30.27 (inHg)
Sichtweite 6.2 (Meile) - 10 (Km)
Flughafen
Flughafen Code LOWW

Position : Vienna International Airport
Entfernung: 58 (Km)

Metar:
LOWW 252320Z 16004KT 090V180 CAVOK 13/12 Q1025 NOSIG

Zeit: 26-09-2023 01:20 CEST